Big Bear Station Historical Data
Daily Summary for June 19, 2019 Units:  Metric    English   Both
Next Day »
Daily Weekly Monthly Yearly Custom
  High: Low: Average:
Temperature: 29.1 °C 9.1 °C 18 °C
Dew Point: 12.1 °C 4.3 °C 7.7 °C
Humidity: 90% 23% 56%
Wind Speed: 7.6km/h 0km/h 0.5km/h
Wind Gust: -1607.7km/h - -
Wind- - WSW
Pressure: 799.1 hPa 797.4 hPa -
Precipitation: 0 mm    
Historical Graphs
 
 
Tabular Data for June 19, 2019
Time Temperature Dew Point Pressure Wind Wind Speed Wind Gust Humidity Rainfall Rate (Hourly)
00:07 12 °C 5.6 °C 799.1 hPa Calm   -1607.7 km/h 65% 0 mm
00:22 11.8 °C 5.6 °C 799.1 hPa Calm   -1607.7 km/h 66% 0 mm
00:37 11.7 °C 5.6 °C 798.8 hPa Calm   -1607.7 km/h 66% 0 mm
00:52 11.4 °C 5.5 °C 798.8 hPa Calm   -1607.7 km/h 67% 0 mm
01:08 11.1 °C 5.6 °C 798.8 hPa Calm   -1607.7 km/h 69% 0 mm
01:23 10.9 °C 5.8 °C 798.8 hPa Calm   -1607.7 km/h 71% 0 mm
01:38 10.8 °C 5.9 °C 798.4 hPa Calm   -1607.7 km/h 72% 0 mm
01:53 10.6 °C 5.6 °C 798.4 hPa Calm   -1607.7 km/h 71% 0 mm
02:08 10.5 °C 6.1 °C 798.4 hPa Calm   -1607.7 km/h 74% 0 mm
02:24 10.4 °C 6.7 °C 798.4 hPa Calm   -1607.7 km/h 78% 0 mm
02:39 10.2 °C 6.7 °C 798.1 hPa Calm   -1607.7 km/h 79% 0 mm
02:54 10.1 °C 7 °C 798.1 hPa Calm   -1607.7 km/h 81% 0 mm
03:09 9.9 °C 6.9 °C 798.1 hPa Calm   -1607.7 km/h 82% 0 mm
03:24 9.7 °C 7.2 °C 798.1 hPa Calm   -1607.7 km/h 84% 0 mm
03:40 9.8 °C 7.4 °C 798.1 hPa Calm   -1607.7 km/h 85% 0 mm
03:55 9.7 °C 7.5 °C 798.1 hPa Calm   -1607.7 km/h 86% 0 mm
04:10 9.5 °C 7.4 °C 798.1 hPa Calm   -1607.7 km/h 87% 0 mm
04:25 9.5 °C 7.4 °C 798.1 hPa Calm   -1607.7 km/h 87% 0 mm
04:40 9.4 °C 7.3 °C 798.1 hPa Calm   -1607.7 km/h 87% 0 mm
04:56 9.2 °C 7.2 °C 798.1 hPa Calm   -1607.7 km/h 87% 0 mm
05:11 9.2 °C 7.3 °C 798.1 hPa Calm   -1607.7 km/h 88% 0 mm
05:26 9.2 °C 7.3 °C 798.1 hPa Calm   -1607.7 km/h 88% 0 mm
05:41 9.1 °C 7.2 °C 798.4 hPa Calm   -1607.7 km/h 88% 0 mm
05:56 9.1 °C 7.4 °C 798.4 hPa Calm   -1607.7 km/h 89% 0 mm
06:12 9.2 °C 7.5 °C 798.4 hPa Calm   -1607.7 km/h 89% 0 mm
06:27 9.3 °C 7.7 °C 798.4 hPa Calm   -1607.7 km/h 90% 0 mm
06:42 9.2 °C 7.7 °C 798.8 hPa Calm   -1607.7 km/h 90% 0 mm
06:57 9.6 °C 7.9 °C 798.8 hPa Calm   -1607.7 km/h 89% 0 mm
07:13 10.2 °C 8.5 °C 798.8 hPa Calm   -1607.7 km/h 89% 0 mm
07:28 10.6 °C 8.7 °C 798.8 hPa Calm   -1607.7 km/h 88% 0 mm
07:43 11.2 °C 9.5 °C 798.8 hPa Calm   -1607.7 km/h 89% 0 mm
07:58 12.3 °C 10.2 °C 798.8 hPa Calm   -1607.7 km/h 87% 0 mm
08:13 13.5 °C 10.5 °C 798.8 hPa Calm   -1607.7 km/h 82% 0 mm
08:29 14.4 °C 11.3 °C 798.8 hPa Calm   -1607.7 km/h 82% 0 mm
08:44 15.3 °C 11.8 °C 798.8 hPa Calm   -1607.7 km/h 80% 0 mm
08:59 16.2 °C 12 °C 798.8 hPa Calm   -1607.7 km/h 76% 0 mm
09:14 17.2 °C 10.1 °C 798.8 hPa Calm   -1607.7 km/h 63% 0 mm
09:29 19.3 °C 12.1 °C 798.8 hPa Calm   -1607.7 km/h 63% 0 mm
09:45 20.8 °C 5.6 °C 798.8 hPa Calm   -1607.7 km/h 37% 0 mm
10:00 22.1 °C 5.5 °C 798.8 hPa Calm   -1607.7 km/h 34% 0 mm
10:15 23 °C 5.9 °C 798.8 hPa Calm   -1607.7 km/h 33% 0 mm
10:30 23.4 °C 5.8 °C 798.8 hPa Calm   -1607.7 km/h 32% 0 mm
10:45 24.1 °C 5.4 °C 798.8 hPa Calm   -1607.7 km/h 30% 0 mm
11:01 24.8 °C 5.6 °C 798.8 hPa Calm   -1607.7 km/h 29% 0 mm
11:16 25.4 °C 5.1 °C 799.1 hPa Calm   -1607.7 km/h 27% 0 mm
11:31 26 °C 5.6 °C 798.8 hPa Calm   -1607.7 km/h 27% 0 mm
11:46 26.1 °C 5.1 °C 799.1 hPa West 1.8 km/h -1607.7 km/h 26% 0 mm
12:01 28.2 °C 6.3 °C 799.1 hPa Calm   -1607.7 km/h 25% 0 mm
12:17 27.6 °C 6.4 °C 799.1 hPa Calm   -1607.7 km/h 26% 0 mm
12:32 28.2 °C 5.7 °C 798.8 hPa Calm   -1607.7 km/h 24% 0 mm
12:47 29.1 °C 6.5 °C 798.8 hPa Calm   -1607.7 km/h 24% 0 mm
13:02 29 °C 6.4 °C 798.8 hPa Calm   -1607.7 km/h 24% 0 mm
13:17 29 °C 5.8 °C 798.4 hPa WNW 7.6 km/h -1607.7 km/h 23% 0 mm
13:33 27.9 °C 9.2 °C 798.4 hPa Calm   -1607.7 km/h 31% 0 mm
13:48 27.9 °C 11.4 °C 798.4 hPa NW 1.8 km/h -1607.7 km/h 36% 0 mm
14:03 27.8 °C 11.3 °C 798.1 hPa NNE 6 km/h -1607.7 km/h 36% 0 mm
14:18 27.5 °C 11.9 °C 798.1 hPa Calm   -1607.7 km/h 38% 0 mm
14:34 27.2 °C 11.7 °C 798.1 hPa NNW 2.7 km/h -1607.7 km/h 38% 0 mm
14:49 26.9 °C 11.4 °C 798.1 hPa NNW 5.1 km/h -1607.7 km/h 38% 0 mm
15:04 27.1 °C 11.9 °C 798.1 hPa WNW 2.7 km/h -1607.7 km/h 39% 0 mm
15:19 25.7 °C 10.7 °C 798.1 hPa NNE 2.7 km/h -1607.7 km/h 39% 0 mm
15:34 26.4 °C 11.3 °C 798.1 hPa NW 6 km/h -1607.7 km/h 39% 0 mm
15:50 26.2 °C 11.2 °C 798.1 hPa NW 5.1 km/h -1607.7 km/h 39% 0 mm
16:05 25.4 °C 11.2 °C 797.7 hPa Calm   -1607.7 km/h 41% 0 mm
16:20 25 °C 10.4 °C 797.7 hPa Calm   -1607.7 km/h 40% 0 mm
16:35 25.5 °C 10.6 °C 797.7 hPa Calm   -1607.7 km/h 39% 0 mm
16:50 26 °C 10.6 °C 797.7 hPa Calm   -1607.7 km/h 38% 0 mm
17:06 26.4 °C 10.9 °C 797.7 hPa Calm   -1607.7 km/h 38% 0 mm
17:21 27.3 °C 10.9 °C 797.7 hPa Calm   -1607.7 km/h 36% 0 mm
17:36 27.6 °C 10.8 °C 797.7 hPa Calm   -1607.7 km/h 35% 0 mm
17:51 27.1 °C 10.8 °C 797.7 hPa NW 2.7 km/h -1607.7 km/h 36% 0 mm
18:06 26.5 °C 10.2 °C 797.4 hPa Calm   -1607.7 km/h 36% 0 mm
18:22 25.3 °C 10.3 °C 797.4 hPa Calm   -1607.7 km/h 39% 0 mm
18:37 25.3 °C 8.7 °C 797.4 hPa Calm   -1607.7 km/h 35% 0 mm
18:52 22.9 °C 8.6 °C 797.4 hPa Calm   -1607.7 km/h 40% 0 mm
19:07 22 °C 9.2 °C 797.7 hPa Calm   -1607.7 km/h 44% 0 mm
19:22 20.5 °C 9.4 °C 797.7 hPa Calm   -1607.7 km/h 49% 0 mm
19:38 18.9 °C 8.2 °C 797.7 hPa Calm   -1607.7 km/h 50% 0 mm
19:53 18.3 °C 6.2 °C 797.7 hPa Calm   -1607.7 km/h 45% 0 mm
20:08 17.4 °C 5.3 °C 797.7 hPa Calm   -1607.7 km/h 45% 0 mm
20:23 16.9 °C 5.2 °C 797.7 hPa Calm   -1607.7 km/h 46% 0 mm
20:39 16.5 °C 5.2 °C 798.1 hPa Calm   -1607.7 km/h 47% 0 mm
20:54 16.1 °C 4.8 °C 798.1 hPa Calm   -1607.7 km/h 47% 0 mm
21:09 16 °C 5 °C 798.1 hPa Calm   -1607.7 km/h 48% 0 mm
21:24 15.8 °C 4.5 °C 798.1 hPa Calm   -1607.7 km/h 47% 0 mm
21:39 15.6 °C 4.6 °C 798.4 hPa Calm   -1607.7 km/h 48% 0 mm
21:55 15.3 °C 4.3 °C 798.4 hPa Calm   -1607.7 km/h 48% 0 mm
22:10 15.4 °C 4.4 °C 798.4 hPa Calm   -1607.7 km/h 48% 0 mm
22:25 14.9 °C 4.6 °C 798.4 hPa Calm   -1607.7 km/h 50% 0 mm
22:40 14.7 °C 4.7 °C 798.4 hPa Calm   -1607.7 km/h 51% 0 mm
22:55 14.2 °C 4.5 °C 798.4 hPa Calm   -1607.7 km/h 52% 0 mm
23:11 14 °C 4.6 °C 798.1 hPa Calm   -1607.7 km/h 53% 0 mm
23:26 13.7 °C 4.6 °C 798.1 hPa Calm   -1607.7 km/h 54% 0 mm
23:41 13.3 °C 5.2 °C 798.1 hPa Calm   -1607.7 km/h 58% 0 mm
23:56 12.9 °C 5.1 °C 797.7 hPa Calm   -1607.7 km/h 59% 0 mm
Big Bear CA Weather